KPDX Airport Information

Runway Information
Runway 03 Length 7001 ft width 150 ft
Elevation 22 ft Threshold 0 ft Heading 45
Runway 21 Length 7001 ft Width 150 ft
Elevation 27 ft Threshold 680 ft Heading 225
Runway 10L Length 8000 ft width 150 ft
Elevation 29 ft Threshold 0 ft Heading 119
Runway 28R Length 8000 ft Width 150 ft
Elevation 29 ft Threshold 0 ft Heading 299
Runway 10R Length 11000 ft width 150 ft
Elevation 22 ft Threshold 0 ft Heading 119
Runway 28L Length 11000 ft Width 150 ft
Elevation 23 ft Threshold 0 ft Heading 299
Airport Frequencies
Type ACP Name 939 ARW CO Frequency 124.35 MHZ
Type APP Name APP Frequency 29.92 MHZ
Type APP Name APP Frequency 118.1 MHZ
Type ATIS Name ATIS Frequency 120.625 MHZ
Type CLD Name CLNC DEL Frequency 120.125 MHZ
Type DEP Name DEP Frequency 118.1 MHZ
Type GND Name GND Frequency 121.9 MHZ
Type OPS Name ANG BASE O Frequency 28.05 MHZ
Type TWR Name TWR Frequency 118.7 MHZ
Type UNIC Name UNICOM Frequency 122.95 MHZ
Airport Navaids
Type TACAN Name Columbia Frequency 109200 KHZ
Type VOR-DME Name Portland Frequency 111800 KHZ
Airport Weather Information & NOTAM
ADDS - METARS form results

(0203 UTC 23 September 2019)
Data provider http://aviationweather.gov/metar/data/
 
METAR text: KPDX 230153Z 31008KT 10SM FEW016 SCT025 BKN037 18/14 A2994 RMK AO2 RAB02E40 SLP139 P0000 T01780139
Conditions at: KPDX (PORTLAND , OR, US) observed 0153 UTC 23 September 2019
Temperature: 17.8°C (64°F)
Dewpoint: 13.9°C (57°F) [RH = 78%]
Pressure (altimeter): 29.94 inches Hg (1014.0 mb)
[Sea-level pressure: 1013.9 mb]
Winds: from the NW (310 degrees) at 9 MPH (8 knots; 4.1 m/s)
Visibility: 10 or more miles (16+ km)
Ceiling: 3700 feet AGL
Clouds: few clouds at 1600 feet AGL
scattered clouds at 2500 feet AGL
broken clouds at 3700 feet AGL
Weather: no significant weather observed at this time

METAR text: KPDX 230140Z 33006KT 10SM SCT018 OVC033 18/14 A2994 RMK AO2 RAB02E40 P0000 T01830139
Conditions at: KPDX (PORTLAND , OR, US) observed 0140 UTC 23 September 2019
Temperature: 18.3°C (65°F)
Dewpoint: 13.9°C (57°F) [RH = 76%]
Pressure (altimeter): 29.94 inches Hg (1014.0 mb)
Winds: from the NNW (330 degrees) at 7 MPH (6 knots; 3.1 m/s)
Visibility: 10 or more miles (16+ km)
Ceiling: 3300 feet AGL
Clouds: scattered clouds at 1800 feet AGL
overcast cloud deck at 3300 feet AGL
Weather: no significant weather observed at this time

METAR text: KPDX 230112Z 22004KT 10SM -RA BKN023 OVC034 18/15 A2993 RMK AO2 RAB02 P0000 T01830150
Conditions at: KPDX (PORTLAND , OR, US) observed 0112 UTC 23 September 2019
Temperature: 18.3°C (65°F)
Dewpoint: 15.0°C (59°F) [RH = 81%]
Pressure (altimeter): 29.93 inches Hg (1013.6 mb)
Winds: from the SW (220 degrees) at 5 MPH (4 knots; 2.1 m/s)
Visibility: 10 or more miles (16+ km)
Ceiling: 2300 feet AGL
Clouds: broken clouds at 2300 feet AGL
overcast cloud deck at 3400 feet AGL
Weather: -RA  (light rain)

Forecast for: KPDX (PORTLAND , OR, US)
Text: KPDX 222325Z 2300/2324 25006KT P6SM -SHRA BKN040 BKN050
Forecast period: 0000 to 0300 UTC 23 September 2019
Forecast type: FROM: standard forecast or significant change
Winds: from the WSW (250 degrees) at 7 MPH (6 knots; 3.1 m/s)
Visibility: 6 or more miles 10+ km)
Ceiling: 4000 feet AGL
Clouds: broken clouds at 4000 feet AGL
broken clouds at 5000 feet AGL
Weather: -SHRA  (light rain showers)
Text: FM230300 29006KT P6SM BKN050
Forecast period: 0300 to 0600 UTC 23 September 2019
Forecast type: FROM: standard forecast or significant change
Winds: from the WNW (290 degrees) at 7 MPH (6 knots; 3.1 m/s)
Visibility: 6 or more miles 10+ km)
Ceiling: 5000 feet AGL
Clouds: broken clouds at 5000 feet AGL
Weather: no significant weather forecast for this period
Text: FM230600 31004KT P6SM OVC025
Forecast period: 0600 to 2100 UTC 23 September 2019
Forecast type: FROM: standard forecast or significant change
Winds: from the NW (310 degrees) at 5 MPH (4 knots; 2.1 m/s)
Visibility: 6 or more miles 10+ km)
Ceiling: 2500 feet AGL
Clouds: overcast cloud deck at 2500 feet AGL
Weather: no significant weather forecast for this period
Text: FM232100 13007KT P6SM BKN035
Forecast period: 2100 UTC 23 September 2019 to 0000 UTC 24 September 2019
Forecast type: FROM: standard forecast or significant change
Winds: from the SE (130 degrees) at 8 MPH (7 knots; 3.6 m/s)
Visibility: 6 or more miles 10+ km)
Ceiling: 3500 feet AGL
Clouds: broken clouds at 3500 feet AGL
Weather: no significant weather forecast for this period